createdAt,value
2023-04-16T00:01:36.254Z,6.32
2023-04-16T00:06:38.566Z,5.80
2023-04-16T00:11:41.493Z,5.70
2023-04-16T00:16:44.443Z,4.72
2023-04-16T00:21:47.710Z,5.60
2023-04-16T00:26:50.577Z,5.60
2023-04-16T00:31:52.841Z,6.13
2023-04-16T00:36:55.702Z,6.13
2023-04-16T00:41:58.447Z,7.88
2023-04-16T00:47:02.134Z,8.52
2023-04-16T00:52:04.977Z,7.53
2023-04-16T00:57:07.954Z,7.35
2023-04-16T01:02:11.575Z,6.65
2023-04-16T01:07:13.981Z,5.90
2023-04-16T01:12:16.327Z,5.10
2023-04-16T01:17:19.111Z,5.15
2023-04-16T01:22:22.972Z,5.25
2023-04-16T01:27:25.619Z,4.90
2023-04-16T01:32:31.763Z,5.07
2023-04-16T01:37:34.673Z,5.20
2023-04-16T01:42:38.243Z,4.78
2023-04-16T01:47:41.170Z,4.20
2023-04-16T01:52:44.887Z,4.18
2023-04-16T01:57:48.143Z,5.07
2023-04-16T02:02:51.464Z,5.53
2023-04-16T02:08:02.173Z,7.10
2023-04-16T02:13:05.914Z,8.18
2023-04-16T02:18:08.418Z,8.05
2023-04-16T02:23:15.389Z,7.30
2023-04-16T02:28:19.128Z,8.00
2023-04-16T02:33:22.118Z,14.20
2023-04-16T02:38:33.869Z,13.18
2023-04-16T02:43:36.556Z,11.50
2023-04-16T02:48:40.509Z,9.57
2023-04-16T02:53:46.853Z,7.45
2023-04-16T03:03:53.107Z,8.32
2023-04-16T03:08:56.037Z,11.18
2023-04-16T03:13:59.544Z,10.48
2023-04-16T03:19:03.069Z,12.18
2023-04-16T03:24:06.509Z,7.68
2023-04-16T03:29:09.099Z,12.13
2023-04-16T03:34:12.365Z,7.43
2023-04-16T03:39:16.490Z,3.63
2023-04-16T03:44:19.845Z,2.70
2023-04-16T03:49:22.753Z,3.38
2023-04-16T03:54:27.818Z,2.70
2023-04-16T03:59:42.121Z,2.50
2023-04-16T04:04:44.681Z,2.13
2023-04-16T04:09:48.096Z,2.35
2023-04-16T04:14:51.953Z,2.20
2023-04-16T04:20:01.386Z,2.00
2023-04-16T04:25:10.455Z,2.50
2023-04-16T04:30:12.900Z,2.92
2023-04-16T04:35:17.031Z,3.45
2023-04-16T04:40:20.135Z,5.70
2023-04-16T04:45:26.275Z,7.18
2023-04-16T04:50:29.961Z,4.38
2023-04-16T04:55:33.555Z,4.05
2023-04-16T05:00:37.362Z,3.50
2023-04-16T05:05:41.636Z,3.92
2023-04-16T05:10:44.000Z,3.45
2023-04-16T05:15:47.174Z,2.97
2023-04-16T05:20:50.068Z,2.28
2023-04-16T05:25:52.394Z,2.80
2023-04-16T05:30:55.606Z,3.47
2023-04-16T05:35:58.983Z,4.07
2023-04-16T05:46:05.626Z,4.68
2023-04-16T05:51:07.979Z,3.25
2023-04-16T05:56:10.569Z,4.68
2023-04-16T06:01:12.945Z,6.65
2023-04-16T06:06:15.341Z,4.85
2023-04-16T06:11:17.700Z,13.32
2023-04-16T06:16:21.147Z,3.35
2023-04-16T06:21:24.081Z,3.67
2023-04-16T06:26:27.493Z,5.47
2023-04-16T06:31:30.642Z,3.40
2023-04-16T06:36:35.274Z,2.13
2023-04-16T06:41:38.545Z,2.20
2023-04-16T06:46:41.384Z,2.47
2023-04-16T06:51:44.378Z,1.67
2023-04-16T06:56:46.715Z,1.63
2023-04-16T07:01:49.645Z,1.92
2023-04-16T07:06:52.566Z,1.10
2023-04-16T07:11:55.140Z,1.00
2023-04-16T07:16:58.870Z,1.85
2023-04-16T07:22:01.964Z,2.05
2023-04-16T07:27:05.586Z,2.08
2023-04-16T07:32:08.825Z,1.83
2023-04-16T07:37:12.001Z,1.70
2023-04-16T07:42:15.710Z,1.58
2023-04-16T07:47:18.026Z,1.58
2023-04-16T07:52:21.485Z,1.70
2023-04-16T07:57:23.905Z,1.60
2023-04-16T08:02:26.762Z,1.30
2023-04-16T08:07:29.644Z,1.33
2023-04-16T08:12:32.905Z,1.50
2023-04-16T08:17:35.225Z,1.60
2023-04-16T08:22:38.838Z,1.23
2023-04-16T08:27:42.220Z,0.90
2023-04-16T08:32:45.990Z,1.30
2023-04-16T08:37:50.264Z,1.17
2023-04-16T08:42:56.040Z,1.60
2023-04-16T08:47:58.739Z,1.42
2023-04-16T08:53:07.044Z,1.42
2023-04-16T08:58:14.614Z,1.55
2023-04-16T09:03:20.606Z,2.17
2023-04-16T09:08:24.453Z,1.23
2023-04-16T09:13:27.264Z,1.40
2023-04-16T09:18:31.254Z,1.85
2023-04-16T09:23:33.525Z,1.27
2023-04-16T09:28:54.036Z,1.33
2023-04-16T09:34:06.691Z,1.50
2023-04-16T09:39:20.071Z,1.50
2023-04-16T09:44:36.594Z,1.50
2023-04-16T09:49:42.961Z,1.70
2023-04-16T09:54:51.535Z,1.50
2023-04-16T09:59:58.645Z,1.73
2023-04-16T10:05:04.646Z,2.25
2023-04-16T10:10:09.570Z,3.13
2023-04-16T10:15:12.349Z,1.67
2023-04-16T10:20:17.310Z,1.45
2023-04-16T10:30:23.952Z,2.00
2023-04-16T10:35:27.001Z,1.80
2023-04-16T10:40:29.903Z,1.77
2023-04-16T10:45:38.994Z,1.60
2023-04-16T10:50:41.623Z,2.10
2023-04-16T10:56:06.419Z,2.08
2023-04-16T11:01:13.796Z,1.83
2023-04-16T11:06:19.084Z,1.83
2023-04-16T11:11:23.074Z,2.50
2023-04-16T11:16:26.728Z,2.38
2023-04-16T11:21:29.487Z,1.85
2023-04-16T11:26:33.043Z,1.73
2023-04-16T11:31:36.017Z,2.10
2023-04-16T11:36:51.458Z,1.90
2023-04-16T11:41:54.256Z,1.75
2023-04-16T11:46:58.003Z,2.30
2023-04-16T11:52:01.064Z,2.42
2023-04-16T11:57:05.210Z,1.92
2023-04-16T12:02:09.156Z,1.58
2023-04-16T12:07:13.544Z,3.13
2023-04-16T12:12:27.798Z,1.90
2023-04-16T12:17:33.088Z,1.80
2023-04-16T12:22:38.611Z,1.67
2023-04-16T12:27:54.189Z,2.72
2023-04-16T12:33:17.499Z,2.78
2023-04-16T12:38:22.796Z,2.47
2023-04-16T12:43:26.840Z,1.40
2023-04-16T12:48:29.363Z,2.90
2023-04-16T12:53:33.616Z,2.60
2023-04-16T12:58:36.713Z,3.83
2023-04-16T13:03:39.235Z,3.20
2023-04-16T13:08:43.457Z,2.70
2023-04-16T13:13:46.527Z,1.77
2023-04-16T13:18:49.967Z,1.40
2023-04-16T13:23:52.565Z,2.30
2023-04-16T13:28:55.227Z,2.42
2023-04-16T13:33:57.912Z,3.60
2023-04-16T13:39:01.066Z,2.88
2023-04-16T13:44:03.922Z,2.88
2023-04-16T13:49:07.357Z,3.65
2023-04-16T13:54:09.858Z,2.42
2023-04-16T13:59:12.549Z,2.22
2023-04-16T14:04:15.690Z,2.53
2023-04-16T14:09:19.636Z,1.70
2023-04-16T14:14:23.435Z,1.75
2023-04-16T14:19:26.880Z,2.35
2023-04-16T14:24:31.537Z,1.52
2023-04-16T14:29:34.443Z,1.40
2023-04-16T14:34:37.639Z,1.45
2023-04-16T14:39:40.559Z,2.20
2023-04-16T14:44:44.828Z,2.20
2023-04-16T14:49:47.898Z,1.80
2023-04-16T14:54:51.403Z,1.40
2023-04-16T14:59:53.921Z,1.40
2023-04-16T15:04:56.686Z,1.45
2023-04-16T15:09:59.491Z,1.70
2023-04-16T15:15:02.147Z,1.83
2023-04-16T15:20:09.483Z,1.77
2023-04-16T15:25:11.984Z,1.70
2023-04-16T15:30:17.027Z,2.33
2023-04-16T15:35:20.286Z,2.92
2023-04-16T15:40:24.636Z,3.88
2023-04-16T15:45:30.092Z,3.85
2023-04-16T15:50:33.490Z,2.42
2023-04-16T15:55:36.769Z,2.53
2023-04-16T16:00:39.638Z,4.35
2023-04-16T16:05:42.450Z,2.70
2023-04-16T16:10:55.163Z,3.83
2023-04-16T16:15:58.578Z,3.55
2023-04-16T16:21:01.725Z,3.83
2023-04-16T16:26:06.525Z,4.35
2023-04-16T16:31:09.541Z,3.92
2023-04-16T16:36:12.657Z,3.88
2023-04-16T16:41:15.226Z,4.68
2023-04-16T16:46:17.891Z,4.85
2023-04-16T16:51:20.356Z,4.28
2023-04-16T16:56:23.783Z,4.40
2023-04-16T17:01:26.562Z,5.22
2023-04-16T17:06:29.814Z,6.55
2023-04-16T17:11:32.188Z,8.02
2023-04-16T17:16:34.697Z,7.40
2023-04-16T17:21:37.293Z,6.43
2023-04-16T17:26:41.284Z,6.10
2023-04-16T17:31:43.633Z,5.90
2023-04-16T17:36:47.430Z,6.90
2023-04-16T17:41:54.521Z,7.53
2023-04-16T17:46:57.499Z,7.32
2023-04-16T17:52:00.887Z,5.22
2023-04-16T17:57:03.347Z,4.97
2023-04-16T18:02:06.346Z,3.92
2023-04-16T18:07:08.824Z,4.68
2023-04-16T18:12:12.017Z,5.38
2023-04-16T18:17:14.429Z,4.90
2023-04-16T18:22:16.956Z,5.22
2023-04-16T18:27:21.697Z,6.57
2023-04-16T18:32:24.244Z,6.82
2023-04-16T18:37:26.745Z,5.88
2023-04-16T18:42:29.544Z,4.78
2023-04-16T18:47:32.009Z,6.43
2023-04-16T18:52:34.412Z,7.60
2023-04-16T18:57:37.148Z,8.07
2023-04-16T19:02:40.256Z,7.75
2023-04-16T19:07:42.704Z,7.65
2023-04-16T19:12:45.805Z,7.88
2023-04-16T19:17:48.235Z,8.20
2023-04-16T19:22:51.048Z,6.55
2023-04-16T19:27:53.466Z,6.82
2023-04-16T19:32:55.960Z,7.18
2023-04-16T19:38:00.187Z,10.38
2023-04-16T19:43:04.226Z,10.82
2023-04-16T19:48:07.185Z,10.65
2023-04-16T19:53:10.845Z,9.85
2023-04-16T19:58:14.706Z,10.77
2023-04-16T20:03:17.739Z,11.40
2023-04-16T20:08:21.119Z,13.90
2023-04-16T20:13:26.368Z,11.32
2023-04-16T20:18:29.017Z,11.93
2023-04-16T20:23:33.152Z,11.32
2023-04-16T20:28:36.641Z,10.30
2023-04-16T20:33:42.345Z,9.15
2023-04-16T20:43:51.011Z,8.13
2023-04-16T20:53:56.121Z,8.93
2023-04-16T20:58:59.562Z,10.32
2023-04-16T21:04:02.409Z,10.93
2023-04-16T21:09:06.774Z,13.23
2023-04-16T21:14:10.707Z,13.73
2023-04-16T21:19:13.154Z,13.88
2023-04-16T21:24:16.091Z,15.38
2023-04-16T21:29:18.563Z,16.50
2023-04-16T21:34:20.940Z,15.88
2023-04-16T21:39:24.708Z,16.23
2023-04-16T21:44:28.440Z,17.13
2023-04-16T21:49:30.727Z,18.55
2023-04-16T21:54:32.983Z,19.17
2023-04-16T21:59:35.385Z,20.27
2023-04-16T22:04:39.010Z,19.88
2023-04-16T22:09:42.060Z,20.45
2023-04-16T22:14:59.563Z,17.83
2023-04-16T22:20:15.056Z,18.75
2023-04-16T22:25:17.346Z,16.13
2023-04-16T22:30:20.879Z,17.77
2023-04-16T22:35:24.274Z,16.02
2023-04-16T22:40:27.736Z,14.98
2023-04-16T22:45:30.659Z,14.35
2023-04-16T22:50:33.514Z,14.38
2023-04-16T22:55:36.863Z,14.18
2023-04-16T23:00:39.514Z,13.70
2023-04-16T23:05:42.437Z,13.35
2023-04-16T23:10:44.785Z,15.07
2023-04-16T23:15:47.585Z,13.73
2023-04-16T23:20:53.998Z,11.55
2023-04-16T23:25:56.264Z,12.00
2023-04-16T23:30:58.664Z,12.48
2023-04-16T23:36:01.060Z,9.95
2023-04-16T23:41:03.538Z,11.05
2023-04-16T23:46:06.261Z,11.50
2023-04-16T23:51:09.143Z,10.68
2023-04-16T23:56:12.056Z,8.75
